• Join FlightAware (Why Join?)
  • Login
  • US Flag 
09:07AM EDT


 

Airport Tracker/Info


-or-


 

Live Flight TrackerFlight Track Log ✈ N193SF ✈ 26-Dec-2013 ✈ KLVK - KMMH

Flight Track Log - Related Links

Times and Time Zones

All times are in EST time to prevent confusion due to time zone crossing. See the N193SF flight status page for this flight to view local times or setup timezone preferences in your user account.

Time Position Orientation Groundspeed Altitude Reporting Facility
EST Latitude Longitude Course Direction KTS MPH feet Rate Location/Type
03:55PM 37.8333 -121.5667 38° Northeast 152 175 4,700  Level Northern Cal TRACON
03:56PM 37.8667 -121.5333 38° Northeast 154 177 5,300 600 Climbing Northern Cal TRACON
03:57PM 37.8833 -121.4833 67° East 153 176 5,900 600 Climbing Northern Cal TRACON
03:58PM 37.9167 -121.4500 38° Northeast 154 177 6,500 600 Climbing Northern Cal TRACON
03:59PM 37.9500 -121.4000 50° Northeast 156 180 7,100 600 Climbing Northern Cal TRACON
04:00PM 37.9667 -121.3667 58° Northeast 159 183 7,700 540 Climbing Northern Cal TRACON
04:02PM 38.0333 -121.2833 45° Northeast 156 180 8,800 540 Climbing Northern Cal TRACON
04:03PM 38.0500 -121.2333 52° Northeast 155 178 9,400 600 Climbing Northern Cal TRACON
04:04PM 38.0833 -121.2000 38° Northeast 155 178 10,000 600 Climbing Northern Cal TRACON
04:05PM 38.1000 -121.1500 67° East 155 178 10,600 540 Climbing Northern Cal TRACON
04:06PM 38.1333 -121.1167 38° Northeast 153 176 11,200 600 Climbing Northern Cal TRACON
04:07PM 38.1667 -121.0667 50° Northeast 157 181 11,800 600 Climbing Northern Cal TRACON
04:08PM 38.1833 -121.0167 67° East 156 180 12,400 420 Climbing Northern Cal TRACON
04:08PM 38.1989 -121.0114 15° North 156 180 12,500 60 Climbing Oakland Center
04:09PM 38.2289 -120.9636 51° Northeast 167 192 12,500 180 Level Oakland Center
04:10PM 38.2694 -120.9014 50° Northeast 186 214 12,900 480 Climbing Oakland Center
04:11PM 38.2989 -120.8564 50° Northeast 176 203 13,600 660 Climbing Oakland Center
04:12PM 38.3269 -120.8125 51° Northeast 164 189 14,300 600 Climbing Oakland Center
04:13PM 38.3544 -120.7697 51° Northeast 158 182 14,900 540 Climbing Oakland Center
04:14PM 38.3817 -120.7278 50° Northeast 156 180 15,500 240 Climbing Oakland Center
04:15PM 38.4097 -120.6831 51° Northeast 160 184 15,500  Level Oakland Center
04:16PM 38.4456 -120.6281 50° Northeast 167 192 15,500  Level Oakland Center
04:17PM 38.4753 -120.5797 52° Northeast 173 199 15,500  Level Oakland Center
04:18PM 38.5072 -120.5325 49° Northeast 175 201 15,500  Level Oakland Center
04:19PM 38.5369 -120.4831 52° Northeast 175 201 15,500  Level Oakland Center
04:20PM 38.5692 -120.4342 50° Northeast 180 207 15,500  Level Oakland Center
04:21PM 38.5994 -120.3861 51° Northeast 175 201 15,500  Level Oakland Center
04:22PM 38.6422 -120.3506 33° Northeast 186 214 15,500  Level Oakland Center
04:23PM 38.6922 -120.3097 33° Northeast 178 205 15,500  Level Oakland Center
04:25PM 38.7336 -120.2750 33° Northeast 179 206 15,500  Level Oakland Center
04:26PM 38.7761 -120.2403 32° Northeast 180 207 15,500  Level Oakland Center
04:27PM 38.8175 -120.2058 33° Northeast 178 205 15,500  Level Oakland Center
04:28PM 38.8592 -120.1714 33° Northeast 178 205 15,500 -60 Level Oakland Center
04:29PM 38.9025 -120.1356 33° Northeast 183 211 15,400 -120 Descending Oakland Center
04:31PM 38.8299 -120.0602 141° Southeast  Level Estimated
04:38PM 38.5571 -119.7792 141° Southeast  Level Estimated
04:39PM 38.5181 -119.7392 141° Southeast  Level Estimated
04:40PM 38.4790 -119.6993 141° Southeast  Level Estimated
04:41PM 38.4400 -119.6594 141° Southeast  Level Estimated
04:42PM 38.4009 -119.6196 141° Southeast  Level Estimated
04:43PM 38.3618 -119.5798 141° Southeast  Level Estimated
04:44PM 38.3228 -119.5400 141° Southeast  Level Estimated
04:45PM 38.2836 -119.5003 141° Southeast  Level Estimated
04:46PM 38.2445 -119.4606 141° Southeast  Level Estimated
04:47PM 38.2054 -119.4210 141° Southeast  Level Estimated
04:48PM 38.1663 -119.3814 142° Southeast  Level Estimated
04:49PM 38.1271 -119.3419 142° Southeast  Level Estimated
04:50PM 38.0879 -119.3024 142° Southeast  Level Estimated
04:51PM 38.0488 -119.2629 142° Southeast  Level Estimated
04:52PM 38.0095 -119.2235 142° Southeast  Level Estimated
04:53PM 37.9703 -119.1841 142° Southeast  Level Estimated
04:54PM 37.9311 -119.1448 142° Southeast  Level Estimated
04:55PM 37.8919 -119.1055 142° Southeast  Level Estimated
04:56PM 37.8526 -119.0662 142° Southeast  Level Estimated
04:57PM 37.8134 -119.0270 142° Southeast  Level Estimated
04:58PM 37.7741 -118.9879 142° Southeast  Level Estimated
04:59PM 37.7348 -118.9487 142° Southeast  Level Estimated
05:00PM 37.6955 -118.9097 142° Southeast  Level Estimated
05:01PM 37.6562 -118.8706 142° Southeast  Level Estimated
05:02PM 37.6241 -118.8388 142° Southeast  Level Estimated
05:03PM 37.6241 -118.8388 180° South  Level Estimated
05:04PM 37.6241 -118.8388 180° South  Level Estimated
05:05PM 37.6241 -118.8388 180° South  Level Estimated
05:06PM 37.6241 -118.8388 180° South  Level Estimated
05:07PM 37.6241 -118.8388 180° South  Level Estimated
05:08PM 37.6241 -118.8388 180° South  Level Estimated
05:09PM 37.6241 -118.8388 180° South  Level Estimated
05:10PM 37.6241 -118.8388 180° South  Level Estimated
05:11PM 37.6241 -118.8388 180° South  Level Estimated
05:12PM 37.6241 -118.8388 180° South  Level Estimated
05:13PM 37.6241 -118.8388 180° South  Level Estimated
05:14PM 37.6241 -118.8388 180° South  Level Estimated
05:15PM 37.6241 -118.8388 180° South  Level Estimated
05:16PM 37.6241 -118.8388 180° South  Level Estimated
05:17PM 37.6241 -118.8388 180° South  Level Estimated